sensor_id;sensor_type;location;lat;lon;timestamp;pressure;altitude;pressure_sealevel;temperature;humidity
51297;BME280;37380;45.186;9.792;2022-09-03T00:01:47;100920.00;;;19.13;100.00
51297;BME280;37380;45.186;9.792;2022-09-03T00:10:51;100928.00;;;19.23;100.00
51297;BME280;37380;45.186;9.792;2022-09-03T00:13:38;100863.47;;;18.92;100.00
51297;BME280;37380;45.186;9.792;2022-09-03T00:16:11;100917.38;;;19.22;100.00
51297;BME280;37380;45.186;9.792;2022-09-03T00:18:45;100918.28;;;19.21;100.00
51297;BME280;37380;45.186;9.792;2022-09-03T00:21:43;100902.34;;;19.16;100.00
51297;BME280;37380;45.186;9.792;2022-09-03T00:24:20;100907.66;;;19.22;100.00
51297;BME280;37380;45.186;9.792;2022-09-03T00:27:27;100935.94;;;19.25;100.00
51297;BME280;37380;45.186;9.792;2022-09-03T00:30:00;100947.41;;;19.22;100.00
51297;BME280;37380;45.186;9.792;2022-09-03T00:35:17;100864.28;;;18.74;100.00
51297;BME280;37380;45.186;9.792;2022-09-03T00:37:46;100934.97;;;18.98;100.00
51297;BME280;37380;45.186;9.792;2022-09-03T00:40:28;100933.16;;;18.90;100.00
51297;BME280;37380;45.186;9.792;2022-09-03T00:43:07;100919.91;;;18.81;100.00
51297;BME280;37380;45.186;9.792;2022-09-03T00:55:26;100915.59;;;19.16;100.00
51297;BME280;37380;45.186;9.792;2022-09-03T00:58:42;100949.22;;;19.33;100.00
51297;BME280;37380;45.186;9.792;2022-09-03T01:08:29;100949.16;;;19.14;100.00
51297;BME280;37380;45.186;9.792;2022-09-03T01:17:10;100952.63;;;19.01;100.00
51297;BME280;37380;45.186;9.792;2022-09-03T01:25:19;100954.28;;;18.76;100.00
51297;BME280;37380;45.186;9.792;2022-09-03T01:28:15;100954.22;;;18.68;100.00
51297;BME280;37380;45.186;9.792;2022-09-03T01:31:08;100976.28;;;18.72;100.00
51297;BME280;37380;45.186;9.792;2022-09-03T01:34:12;100894.13;;;18.47;100.00
51297;BME280;37380;45.186;9.792;2022-09-03T01:45:53;100958.81;;;19.00;100.00
51297;BME280;37380;45.186;9.792;2022-09-03T01:48:43;100975.47;;;18.77;100.00
51297;BME280;37380;45.186;9.792;2022-09-03T01:51:21;100969.25;;;18.71;100.00
51297;BME280;37380;45.186;9.792;2022-09-03T01:54:28;100899.22;;;18.17;100.00
51297;BME280;37380;45.186;9.792;2022-09-03T02:00:09;100898.25;;;18.01;100.00
51297;BME280;37380;45.186;9.792;2022-09-03T02:02:48;100942.50;;;18.29;100.00
51297;BME280;37380;45.186;9.792;2022-09-03T02:05:50;100961.97;;;18.39;100.00
51297;BME280;37380;45.186;9.792;2022-09-03T02:08:51;100894.72;;;18.05;100.00
51297;BME280;37380;45.186;9.792;2022-09-03T02:11:54;100908.06;;;18.23;100.00
51297;BME280;37380;45.186;9.792;2022-09-03T02:14:26;100947.94;;;18.51;100.00
51297;BME280;37380;45.186;9.792;2022-09-03T02:16:57;100893.03;;;18.18;100.00
51297;BME280;37380;45.186;9.792;2022-09-03T02:19:26;100946.22;;;18.56;100.00
51297;BME280;37380;45.186;9.792;2022-09-03T02:21:55;100954.16;;;18.58;100.00
51297;BME280;37380;45.186;9.792;2022-09-03T02:24:24;100952.41;;;18.63;100.00
51297;BME280;37380;45.186;9.792;2022-09-03T02:26:52;100957.72;;;18.66;100.00
51297;BME280;37380;45.186;9.792;2022-09-03T02:29:19;100955.16;;;18.73;100.00
51297;BME280;37380;45.186;9.792;2022-09-03T02:31:47;100944.59;;;18.80;100.00
51297;BME280;37380;45.186;9.792;2022-09-03T02:34:20;100916.28;;;18.69;100.00
51297;BME280;37380;45.186;9.792;2022-09-03T02:37:16;100941.06;;;18.79;100.00
51297;BME280;37380;45.186;9.792;2022-09-03T02:39:44;100859.66;;;18.35;100.00
51297;BME280;37380;45.186;9.792;2022-09-03T02:42:12;100923.25;;;18.50;100.00
51297;BME280;37380;45.186;9.792;2022-09-03T02:44:51;100889.69;;;18.39;100.00
51297;BME280;37380;45.186;9.792;2022-09-03T02:47:49;100965.78;;;18.80;100.00
51297;BME280;37380;45.186;9.792;2022-09-03T02:50:25;100968.47;;;18.93;100.00
51297;BME280;37380;45.186;9.792;2022-09-03T02:53:19;100923.41;;;18.73;100.00
51297;BME280;37380;45.186;9.792;2022-09-03T02:55:46;100923.41;;;18.76;100.00
51297;BME280;37380;45.186;9.792;2022-09-03T02:58:13;100922.59;;;18.91;100.00
51297;BME280;37380;45.186;9.792;2022-09-03T03:00:46;100897.81;;;18.74;100.00
51297;BME280;37380;45.186;9.792;2022-09-03T03:03:48;100928.78;;;18.92;100.00
51297;BME280;37380;45.186;9.792;2022-09-03T03:06:34;100896.97;;;18.83;100.00
51297;BME280;37380;45.186;9.792;2022-09-03T03:09:35;100940.31;;;19.14;100.00
51297;BME280;37380;45.186;9.792;2022-09-03T03:12:29;100903.13;;;18.85;100.00
51297;BME280;37380;45.186;9.792;2022-09-03T03:14:56;100877.41;;;18.56;100.00
51297;BME280;37380;45.186;9.792;2022-09-03T03:17:23;100885.47;;;18.79;100.00
51297;BME280;37380;45.186;9.792;2022-09-03T03:19:50;100929.69;;;19.02;100.00
51297;BME280;37380;45.186;9.792;2022-09-03T03:22:17;100937.72;;;19.26;100.00
51297;BME280;37380;45.186;9.792;2022-09-03T03:24:44;100920.03;;;19.22;100.00
51297;BME280;37380;45.186;9.792;2022-09-03T03:27:11;100870.47;;;18.81;100.00
51297;BME280;37380;45.186;9.792;2022-09-03T03:29:40;100874.94;;;18.88;100.00
51297;BME280;37380;45.186;9.792;2022-09-03T03:32:07;100880.09;;;18.70;100.00
51297;BME280;37380;45.186;9.792;2022-09-03T03:34:34;100896.06;;;18.79;100.00
51297;BME280;37380;45.186;9.792;2022-09-03T03:37:01;100905.81;;;18.92;100.00
51297;BME280;37380;45.186;9.792;2022-09-03T03:39:28;100922.59;;;18.94;100.00
51297;BME280;37380;45.186;9.792;2022-09-03T03:41:55;100911.97;;;18.84;100.00
51297;BME280;37380;45.186;9.792;2022-09-03T03:44:22;100861.59;;;18.68;100.00
51297;BME280;37380;45.186;9.792;2022-09-03T03:46:49;100875.66;;;18.61;100.00
51297;BME280;37380;45.186;9.792;2022-09-03T03:49:23;100927.84;;;18.82;100.00
51297;BME280;37380;45.186;9.792;2022-09-03T03:52:25;100871.97;;;18.28;100.00
51297;BME280;37380;45.186;9.792;2022-09-03T03:55:19;100910.72;;;18.26;100.00
51297;BME280;37380;45.186;9.792;2022-09-03T03:57:46;100924.88;;;18.31;100.00
51297;BME280;37380;45.186;9.792;2022-09-03T04:00:13;100863.88;;;18.01;100.00
51297;BME280;37380;45.186;9.792;2022-09-03T04:02:48;100933.75;;;18.37;100.00
51297;BME280;37380;45.186;9.792;2022-09-03T04:05:56;100900.16;;;18.29;100.00
51297;BME280;37380;45.186;9.792;2022-09-03T04:08:50;100883.38;;;18.18;100.00
51297;BME280;37380;45.186;9.792;2022-09-03T04:11:19;100940.91;;;18.58;100.00
51297;BME280;37380;45.186;9.792;2022-09-03T04:13:47;100898.38;;;18.22;100.00
51297;BME280;37380;45.186;9.792;2022-09-03T04:16:17;100954.09;;;18.48;100.00
51297;BME280;37380;45.186;9.792;2022-09-03T04:18:45;100926.63;;;18.25;100.00
51297;BME280;37380;45.186;9.792;2022-09-03T04:21:20;100858.59;;;18.01;100.00
51297;BME280;37380;45.186;9.792;2022-09-03T04:23:49;100904.75;;;18.58;100.00
51297;BME280;37380;45.186;9.792;2022-09-03T04:26:19;100942.06;;;19.03;100.00
51297;BME280;37380;45.186;9.792;2022-09-03T04:28:46;100897.81;;;18.75;100.00
51297;BME280;37380;45.186;9.792;2022-09-03T04:31:15;100922.59;;;18.94;100.00
51297;BME280;37380;45.186;9.792;2022-09-03T04:33:43;100871.38;;;18.83;100.00
51297;BME280;37380;45.186;9.792;2022-09-03T04:36:18;100941.22;;;19.14;100.00
51297;BME280;37380;45.186;9.792;2022-09-03T04:39:20;100918.19;;;18.96;100.00
51297;BME280;37380;45.186;9.792;2022-09-03T04:42:15;100889.03;;;18.87;100.00
51297;BME280;37380;45.186;9.792;2022-09-03T04:44:42;100916.44;;;18.97;100.00
51297;BME280;37380;45.186;9.792;2022-09-03T04:47:09;100887.19;;;18.71;100.00
51297;BME280;37380;45.186;9.792;2022-09-03T04:49:43;100944.75;;;19.15;100.00
51297;BME280;37380;45.186;9.792;2022-09-03T04:52:39;100939.41;;;19.07;100.00
51297;BME280;37380;45.186;9.792;2022-09-03T04:55:06;100890.75;;;18.77;100.00
51297;BME280;37380;45.186;9.792;2022-09-03T04:57:33;100950.94;;;19.18;100.00
51297;BME280;37380;45.186;9.792;2022-09-03T05:00:03;100928.00;;;19.31;100.00
51297;BME280;37380;45.186;9.792;2022-09-03T05:02:39;100920.00;;;19.08;100.00
51297;BME280;37380;45.186;9.792;2022-09-03T05:05:41;100904.16;;;19.17;100.00
51297;BME280;37380;45.186;9.792;2022-09-03T05:08:35;100928.94;;;19.41;100.00
51297;BME280;37380;45.186;9.792;2022-09-03T05:11:04;100866.97;;;18.85;100.00
51297;BME280;37380;45.186;9.792;2022-09-03T05:13:32;100908.44;;;18.80;100.00
51297;BME280;37380;45.186;9.792;2022-09-03T05:16:04;100945.66;;;19.23;100.00
51297;BME280;37380;45.186;9.792;2022-09-03T05:18:32;100893.44;;;18.81;100.00
51297;BME280;37380;45.186;9.792;2022-09-03T05:21:04;100938.50;;;19.00;100.00
51297;BME280;37380;45.186;9.792;2022-09-03T05:23:36;100927.06;;;19.12;100.00
51297;BME280;37380;45.186;9.792;2022-09-03T05:26:21;100943.00;;;19.28;100.00
51297;BME280;37380;45.186;9.792;2022-09-03T05:29:15;100889.97;;;19.06;100.00
51297;BME280;37380;45.186;9.792;2022-09-03T05:31:42;100885.59;;;19.22;100.00
51297;BME280;37380;45.186;9.792;2022-09-03T05:34:09;100877.66;;;19.19;100.00
51297;BME280;37380;45.186;9.792;2022-09-03T05:36:42;100951.88;;;19.45;100.00
51297;BME280;37380;45.186;9.792;2022-09-03T05:39:16;100898.78;;;19.02;100.00
51297;BME280;37380;45.186;9.792;2022-09-03T05:42:10;100954.56;;;19.53;100.00
51297;BME280;37380;45.186;9.792;2022-09-03T05:44:57;100898.88;;;19.30;100.00
51297;BME280;37380;45.186;9.792;2022-09-03T05:47:24;100899.69;;;19.07;100.00
51297;BME280;37380;45.186;9.792;2022-09-03T05:49:58;100904.16;;;19.31;100.00
51297;BME280;37380;45.186;9.792;2022-09-03T05:52:52;100887.38;;;19.37;100.00
51297;BME280;37380;45.186;9.792;2022-09-03T05:55:19;100924.59;;;19.87;100.00
51297;BME280;37380;45.186;9.792;2022-09-03T05:57:50;100948.47;;;20.07;100.00
51297;BME280;37380;45.186;9.792;2022-09-03T06:00:18;100950.19;;;20.54;100.00
51297;BME280;37380;45.186;9.792;2022-09-03T06:02:52;100916.56;;;20.41;100.00
51297;BME280;37380;45.186;9.792;2022-09-03T06:05:53;100891.84;;;20.15;100.00
51297;BME280;37380;45.186;9.792;2022-09-03T06:08:47;100897.16;;;20.15;100.00
51297;BME280;37380;45.186;9.792;2022-09-03T06:11:14;100884.78;;;20.20;100.00
51297;BME280;37380;45.186;9.792;2022-09-03T06:13:48;100931.63;;;20.15;100.00
51297;BME280;37380;45.186;9.792;2022-09-03T06:16:44;100951.09;;;20.15;100.00
51297;BME280;37380;45.186;9.792;2022-09-03T06:19:12;100922.81;;;19.96;100.00
51297;BME280;37380;45.186;9.792;2022-09-03T06:21:43;100890.09;;;19.80;100.00
51297;BME280;37380;45.186;9.792;2022-09-03T06:24:14;100810.59;;;19.67;100.00
51297;BME280;37380;45.186;9.792;2022-09-03T06:26:42;100908.59;;;20.58;100.00
51297;BME280;37380;45.186;9.792;2022-09-03T06:29:16;100946.28;;;21.47;100.00
51297;BME280;37380;45.186;9.792;2022-09-03T06:32:10;100901.94;;;21.53;100.00
51297;BME280;37380;45.186;9.792;2022-09-03T06:34:44;100936.97;;;22.04;100.00
51297;BME280;37380;45.186;9.792;2022-09-03T06:37:46;100938.25;;;22.57;100.00
51297;BME280;37380;45.186;9.792;2022-09-03T06:40:17;100945.66;;;22.27;100.00
51297;BME280;37380;45.186;9.792;2022-09-03T06:42:55;100904.44;;;21.69;100.00
51297;BME280;37380;45.186;9.792;2022-09-03T06:45:29;100871.97;;;21.24;100.00
51297;BME280;37380;45.186;9.792;2022-09-03T06:47:56;100921.22;;;21.79;100.00
51297;BME280;37380;45.186;9.792;2022-09-03T06:50:30;100951.22;;;22.00;100.00
51297;BME280;37380;45.186;9.792;2022-09-03T06:53:33;100947.47;;;22.22;100.00
51297;BME280;37380;45.186;9.792;2022-09-03T06:56:27;100969.16;;;22.75;100.00
51297;BME280;37380;45.186;9.792;2022-09-03T06:59:15;100931.31;;;23.19;100.00
51297;BME280;37380;45.186;9.792;2022-09-03T07:02:16;100932.06;;;23.88;97.15
51297;BME280;37380;45.186;9.792;2022-09-03T07:05:17;100975.06;;;24.24;95.18
51297;BME280;37380;45.186;9.792;2022-09-03T07:08:21;100960.47;;;23.33;95.80
51297;BME280;37380;45.186;9.792;2022-09-03T07:11:56;100970.16;;;23.39;96.54
51297;BME280;37380;45.186;9.792;2022-09-03T07:14:57;100952.81;;;23.05;97.78
51297;BME280;37380;45.186;9.792;2022-09-03T07:17:51;100951.69;;;23.23;99.34
51297;BME280;37380;45.186;9.792;2022-09-03T07:20:18;100935.22;;;24.13;94.49
51297;BME280;37380;45.186;9.792;2022-09-03T07:22:46;100961.00;;;23.55;93.95
51297;BME280;37380;45.186;9.792;2022-09-03T07:25:13;100961.66;;;23.72;93.66
51297;BME280;37380;45.186;9.792;2022-09-03T07:27:40;100961.09;;;23.49;97.16
51297;BME280;37380;45.186;9.792;2022-09-03T07:30:14;100899.56;;;23.61;96.59
51297;BME280;37380;45.186;9.792;2022-09-03T07:33:15;100946.88;;;24.09;90.80
51297;BME280;37380;45.186;9.792;2022-09-03T07:36:15;100944.97;;;24.15;92.41
51297;BME280;37380;45.186;9.792;2022-09-03T07:38:49;100976.88;;;25.18;88.51
51297;BME280;37380;45.186;9.792;2022-09-03T07:41:50;100935.38;;;25.40;82.57
51297;BME280;37380;45.186;9.792;2022-09-03T07:44:45;100942.91;;;24.30;87.48
51297;BME280;37380;45.186;9.792;2022-09-03T07:47:12;100987.72;;;25.08;88.30
51297;BME280;37380;45.186;9.792;2022-09-03T07:49:52;100993.13;;;25.49;84.89
51297;BME280;37380;45.186;9.792;2022-09-03T07:52:56;100975.84;;;25.25;85.97
51297;BME280;37380;45.186;9.792;2022-09-03T07:56:07;100970.75;;;26.26;79.11
51297;BME280;37380;45.186;9.792;2022-09-03T07:59:03;101003.31;;;25.72;78.86
51297;BME280;37380;45.186;9.792;2022-09-03T08:01:37;100990.19;;;25.60;81.03
51297;BME280;37380;45.186;9.792;2022-09-03T08:04:31;100966.81;;;26.07;77.39
51297;BME280;37380;45.186;9.792;2022-09-03T08:06:59;100955.00;;;26.15;74.94
51297;BME280;37380;45.186;9.792;2022-09-03T08:09:26;100972.44;;;25.17;79.66
51297;BME280;37380;45.186;9.792;2022-09-03T08:11:53;100971.63;;;24.68;78.97
51297;BME280;37380;45.186;9.792;2022-09-03T08:14:26;100929.91;;;23.54;85.20
51297;BME280;37380;45.186;9.792;2022-09-03T08:17:20;100952.31;;;24.01;85.83
51297;BME280;37380;45.186;9.792;2022-09-03T08:19:47;100918.03;;;24.28;82.08
51297;BME280;37380;45.186;9.792;2022-09-03T08:22:14;100943.09;;;25.14;77.92
51297;BME280;37380;45.186;9.792;2022-09-03T08:24:41;101011.31;;;24.88;78.17
51297;BME280;37380;45.186;9.792;2022-09-03T08:27:08;100980.91;;;24.94;82.93
51297;BME280;37380;45.186;9.792;2022-09-03T08:29:35;100990.16;;;25.63;77.87
51297;BME280;37380;45.186;9.792;2022-09-03T08:32:09;100966.81;;;25.68;76.41
51297;BME280;37380;45.186;9.792;2022-09-03T08:35:10;100953.63;;;25.97;75.78
51297;BME280;37380;45.186;9.792;2022-09-03T08:38:11;100963.31;;;26.37;73.48
51297;BME280;37380;45.186;9.792;2022-09-03T08:41:17;101020.81;;;26.60;73.42
51297;BME280;37380;45.186;9.792;2022-09-03T08:44:30;101031.53;;;27.25;71.70
51297;BME280;37380;45.186;9.792;2022-09-03T08:50:09;100978.75;;;27.84;66.25
51297;BME280;37380;45.186;9.792;2022-09-03T08:53:28;101033.00;;;27.65;70.38
51297;BME280;37380;45.186;9.792;2022-09-03T08:56:27;101035.22;;;27.82;68.64
51297;BME280;37380;45.186;9.792;2022-09-03T08:58:56;101032.53;;;28.63;67.00
51297;BME280;37380;45.186;9.792;2022-09-03T09:01:46;101047.00;;;27.47;68.07
51297;BME280;37380;45.186;9.792;2022-09-03T09:15:58;101040.88;;;26.06;71.17
51297;BME280;37380;45.186;9.792;2022-09-03T09:21:39;101056.69;;;26.18;72.45
51297;BME280;37380;45.186;9.792;2022-09-03T09:24:22;100870.72;;;25.21;73.04
51297;BME280;37380;45.186;9.792;2022-09-03T09:27:16;100987.28;;;25.32;75.71
51297;BME280;37380;45.186;9.792;2022-09-03T09:29:50;101015.63;;;26.18;73.34
51297;BME280;37380;45.186;9.792;2022-09-03T09:32:47;101010.41;;;26.12;70.97
51297;BME280;37380;45.186;9.792;2022-09-03T09:35:16;101053.84;;;25.87;75.05
51297;BME280;37380;45.186;9.792;2022-09-03T09:37:55;101049.44;;;25.85;75.98
51297;BME280;37380;45.186;9.792;2022-09-03T09:40:41;101044.25;;;26.16;74.24
51297;BME280;37380;45.186;9.792;2022-09-03T09:43:43;100968.19;;;25.87;76.16
51297;BME280;37380;45.186;9.792;2022-09-03T09:46:38;101033.16;;;27.00;74.13
51297;BME280;37380;45.186;9.792;2022-09-03T09:49:50;101032.41;;;26.62;72.96
51297;BME280;37380;45.186;9.792;2022-09-03T09:53:07;101015.31;;;26.64;70.19
51297;BME280;37380;45.186;9.792;2022-09-03T09:56:02;101042.53;;;25.73;73.81
51297;BME280;37380;45.186;9.792;2022-09-03T09:58:30;100999.13;;;25.99;72.18
51297;BME280;37380;45.186;9.792;2022-09-03T10:01:16;101022.16;;;25.67;75.80
51297;BME280;37380;45.186;9.792;2022-09-03T10:04:28;100945.09;;;25.80;73.64
51297;BME280;37380;45.186;9.792;2022-09-03T10:07:30;101037.53;;;27.35;68.71
51297;BME280;37380;45.186;9.792;2022-09-03T10:12:41;101027.94;;;27.56;67.62
51297;BME280;37380;45.186;9.792;2022-09-03T10:15:48;101022.00;;;27.15;70.99
51297;BME280;37380;45.186;9.792;2022-09-03T10:18:44;100990.31;;;26.66;69.58
51297;BME280;37380;45.186;9.792;2022-09-03T10:21:49;100962.81;;;27.21;70.15
51297;BME280;37380;45.186;9.792;2022-09-03T10:26:55;100997.25;;;26.73;73.11
51297;BME280;37380;45.186;9.792;2022-09-03T10:29:24;100923.28;;;26.33;70.47
51297;BME280;37380;45.186;9.792;2022-09-03T10:32:30;101016.78;;;27.09;69.07
51297;BME280;37380;45.186;9.792;2022-09-03T10:38:24;100959.81;;;26.35;66.40
51297;BME280;37380;45.186;9.792;2022-09-03T10:46:42;101011.50;;;27.06;65.91
51297;BME280;37380;45.186;9.792;2022-09-03T10:52:44;101000.59;;;27.71;65.06
51297;BME280;37380;45.186;9.792;2022-09-03T11:08:57;100984.47;;;27.73;66.80
51297;BME280;37380;45.186;9.792;2022-09-03T11:11:44;100998.41;;;27.56;70.69
51297;BME280;37380;45.186;9.792;2022-09-03T11:14:15;100923.84;;;26.44;69.46
51297;BME280;37380;45.186;9.792;2022-09-03T11:17:00;100976.22;;;26.57;69.58
51297;BME280;37380;45.186;9.792;2022-09-03T11:20:08;101005.59;;;26.62;67.28
51297;BME280;37380;45.186;9.792;2022-09-03T11:23:04;100948.88;;;26.77;68.88
51297;BME280;37380;45.186;9.792;2022-09-03T11:26:07;100908.31;;;27.19;69.75
51297;BME280;37380;45.186;9.792;2022-09-03T11:29:16;100989.88;;;27.71;64.92
51297;BME280;37380;45.186;9.792;2022-09-03T11:32:17;100995.16;;;28.03;64.88
51297;BME280;37380;45.186;9.792;2022-09-03T11:34:49;100999.34;;;27.55;63.43
51297;BME280;37380;45.186;9.792;2022-09-03T11:37:27;100986.03;;;27.52;65.95
51297;BME280;37380;45.186;9.792;2022-09-03T11:40:34;100910.50;;;27.05;64.71
51297;BME280;37380;45.186;9.792;2022-09-03T11:43:30;100928.75;;;26.94;65.20
51297;BME280;37380;45.186;9.792;2022-09-03T11:48:52;100963.41;;;27.59;64.83
51297;BME280;37380;45.186;9.792;2022-09-03T11:52:03;100934.41;;;27.13;68.28
51297;BME280;37380;45.186;9.792;2022-09-03T11:54:58;100964.50;;;28.35;62.17
51297;BME280;37380;45.186;9.792;2022-09-03T11:57:30;100939.41;;;28.61;57.34
51297;BME280;37380;45.186;9.792;2022-09-03T12:00:14;100942.16;;;28.59;59.82
51297;BME280;37380;45.186;9.792;2022-09-03T12:02:54;100993.31;;;28.83;59.36
51297;BME280;37380;45.186;9.792;2022-09-03T12:11:28;100945.25;;;28.49;60.35
51297;BME280;37380;45.186;9.792;2022-09-03T12:16:35;100997.19;;;28.23;63.24
51297;BME280;37380;45.186;9.792;2022-09-03T12:22:05;100946.22;;;28.46;58.76
51297;BME280;37380;45.186;9.792;2022-09-03T12:24:38;100966.91;;;28.17;59.44
51297;BME280;37380;45.186;9.792;2022-09-03T12:27:42;100985.03;;;27.84;63.39
51297;BME280;37380;45.186;9.792;2022-09-03T12:30:36;100962.66;;;28.62;60.85
51297;BME280;37380;45.186;9.792;2022-09-03T12:33:07;100986.69;;;29.17;58.75
51297;BME280;37380;45.186;9.792;2022-09-03T12:35:55;100944.22;;;28.76;58.36
51297;BME280;37380;45.186;9.792;2022-09-03T12:39:07;100997.53;;;28.88;59.27
51297;BME280;37380;45.186;9.792;2022-09-03T12:42:32;100972.84;;;28.54;59.70
51297;BME280;37380;45.186;9.792;2022-09-03T12:45:26;100937.81;;;28.55;61.69
51297;BME280;37380;45.186;9.792;2022-09-03T12:48:15;100986.38;;;27.97;63.17
51297;BME280;37380;45.186;9.792;2022-09-03T12:51:00;100966.06;;;27.89;67.75
51297;BME280;37380;45.186;9.792;2022-09-03T12:54:14;100947.38;;;27.86;72.48
51297;BME280;37380;45.186;9.792;2022-09-03T12:57:19;100933.00;;;28.88;69.45
51297;BME280;37380;45.186;9.792;2022-09-03T13:00:16;100983.25;;;29.59;67.15
51297;BME280;37380;45.186;9.792;2022-09-03T13:03:02;100982.97;;;29.66;67.78
51297;BME280;37380;45.186;9.792;2022-09-03T13:06:12;100956.47;;;29.55;69.04
51297;BME280;37380;45.186;9.792;2022-09-03T13:09:07;100970.59;;;29.61;65.63
51297;BME280;37380;45.186;9.792;2022-09-03T13:11:35;100934.72;;;29.38;65.27
51297;BME280;37380;45.186;9.792;2022-09-03T13:14:04;100976.97;;;29.58;67.66
51297;BME280;37380;45.186;9.792;2022-09-03T13:21:47;100964.16;;;28.94;65.91
51297;BME280;37380;45.186;9.792;2022-09-03T13:27:42;100966.06;;;28.92;67.17
51297;BME280;37380;45.186;9.792;2022-09-03T13:34:14;100943.94;;;28.84;69.60
51297;BME280;37380;45.186;9.792;2022-09-03T13:37:24;100962.38;;;28.95;68.37
51297;BME280;37380;45.186;9.792;2022-09-03T13:40:31;100953.28;;;28.97;67.03
51297;BME280;37380;45.186;9.792;2022-09-03T13:46:25;100915.59;;;28.75;70.35
51297;BME280;37380;45.186;9.792;2022-09-03T13:53:08;100935.88;;;28.84;68.95
51297;BME280;37380;45.186;9.792;2022-09-03T13:56:15;100944.59;;;27.89;72.11
51297;BME280;37380;45.186;9.792;2022-09-03T13:58:49;100947.38;;;27.86;73.38
51297;BME280;37380;45.186;9.792;2022-09-03T14:01:42;100946.81;;;28.03;74.21
51297;BME280;37380;45.186;9.792;2022-09-03T14:05:02;100928.22;;;27.96;73.84
51297;BME280;37380;45.186;9.792;2022-09-03T14:11:18;100943.09;;;28.58;71.88
51297;BME280;37380;45.186;9.792;2022-09-03T14:14:28;100931.25;;;28.12;73.37
51297;BME280;37380;45.186;9.792;2022-09-03T14:17:05;100921.28;;;28.42;72.63
51297;BME280;37380;45.186;9.792;2022-09-03T14:22:19;100942.50;;;28.99;70.62
51297;BME280;37380;45.186;9.792;2022-09-03T14:24:56;100939.03;;;28.95;70.41
51297;BME280;37380;45.186;9.792;2022-09-03T14:27:31;100936.72;;;28.61;71.42
51297;BME280;37380;45.186;9.792;2022-09-03T14:37:01;100852.75;;;28.78;69.14
51297;BME280;37380;45.186;9.792;2022-09-03T14:49:14;100933.94;;;28.64;74.42
51297;BME280;37380;45.186;9.792;2022-09-03T15:02:35;100920.28;;;28.45;74.50
51297;BME280;37380;45.186;9.792;2022-09-03T15:11:31;100898.16;;;28.37;71.75
51297;BME280;37380;45.186;9.792;2022-09-03T15:14:21;100861.63;;;28.06;71.14
51297;BME280;37380;45.186;9.792;2022-09-03T15:20:49;100921.34;;;28.39;72.93
51297;BME280;37380;45.186;9.792;2022-09-03T15:23:53;100890.34;;;28.04;73.67
51297;BME280;37380;45.186;9.792;2022-09-03T15:39:01;100908.50;;;28.23;73.23
51297;BME280;37380;45.186;9.792;2022-09-03T15:42:07;100892.94;;;27.81;73.92
51297;BME280;37380;45.186;9.792;2022-09-03T15:45:15;100912.19;;;27.67;73.43
51297;BME280;37380;45.186;9.792;2022-09-03T15:47:54;100881.25;;;27.55;74.22
51297;BME280;37380;45.186;9.792;2022-09-03T15:54:14;100919.94;;;27.48;75.07
51297;BME280;37380;45.186;9.792;2022-09-03T16:04:58;100914.97;;;27.06;74.84
51297;BME280;37380;45.186;9.792;2022-09-03T16:08:31;100857.16;;;26.66;75.07
51297;BME280;37380;45.186;9.792;2022-09-03T16:11:54;100925.03;;;26.98;76.46
51297;BME280;37380;45.186;9.792;2022-09-03T16:14:25;100927.34;;;27.10;75.20
51297;BME280;37380;45.186;9.792;2022-09-03T16:17:37;100932.91;;;27.04;75.71
51297;BME280;37380;45.186;9.792;2022-09-03T16:20:13;100938.13;;;27.08;76.31
51297;BME280;37380;45.186;9.792;2022-09-03T16:22:50;100902.81;;;26.94;76.23
51297;BME280;37380;45.186;9.792;2022-09-03T16:28:53;100876.50;;;26.77;74.93
51297;BME280;37380;45.186;9.792;2022-09-03T17:01:07;100929.75;;;25.90;86.42
51297;BME280;37380;45.186;9.792;2022-09-03T17:04:29;100923.69;;;25.80;86.77
51297;BME280;37380;45.186;9.792;2022-09-03T17:07:07;100908.06;;;25.63;86.72
51297;BME280;37380;45.186;9.792;2022-09-03T17:31:19;100870.69;;;24.81;93.56
51297;BME280;37380;45.186;9.792;2022-09-03T17:39:57;100950.88;;;24.81;97.90
51297;BME280;37380;45.186;9.792;2022-09-03T17:42:47;100952.78;;;24.76;98.80
51297;BME280;37380;45.186;9.792;2022-09-03T17:48:35;100970.13;;;24.53;100.00
51297;BME280;37380;45.186;9.792;2022-09-03T17:51:46;100969.31;;;24.48;100.00
51297;BME280;37380;45.186;9.792;2022-09-03T17:54:50;100894.56;;;23.97;100.00
51297;BME280;37380;45.186;9.792;2022-09-03T17:58:00;100908.69;;;24.02;100.00
51297;BME280;37380;45.186;9.792;2022-09-03T18:10:31;100990.41;;;24.12;100.00
51297;BME280;37380;45.186;9.792;2022-09-03T18:13:50;100996.00;;;23.97;100.00
51297;BME280;37380;45.186;9.792;2022-09-03T18:17:05;100984.66;;;23.81;100.00
51297;BME280;37380;45.186;9.792;2022-09-03T18:25:55;101005.09;;;23.82;100.00
51297;BME280;37380;45.186;9.792;2022-09-03T18:28:46;101016.56;;;23.89;100.00
51297;BME280;37380;45.186;9.792;2022-09-03T18:31:34;100998.03;;;23.80;100.00
51297;BME280;37380;45.186;9.792;2022-09-03T18:34:28;101012.16;;;23.86;100.00
51297;BME280;37380;45.186;9.792;2022-09-03T18:37:17;100993.69;;;23.72;100.00
51297;BME280;37380;45.186;9.792;2022-09-03T18:40:06;100979.63;;;23.58;100.00
51297;BME280;37380;45.186;9.792;2022-09-03T18:46:24;101035.66;;;23.58;100.00
51297;BME280;37380;45.186;9.792;2022-09-03T19:06:15;101054.53;;;23.43;100.00
51297;BME280;37380;45.186;9.792;2022-09-03T19:15:43;101046.50;;;23.46;100.00
51297;BME280;37380;45.186;9.792;2022-09-03T19:19:34;101054.50;;;23.46;100.00
51297;BME280;37380;45.186;9.792;2022-09-03T19:22:56;101050.78;;;23.59;100.00